sensor_id;sensor_type;location;lat;lon;timestamp;P1;durP1;ratioP1;P2;durP2;ratioP2
27576;SDS011;15011;53.380;10.034;2023-07-28T00:04:52;1.63;;;1.52;;
27576;SDS011;15011;53.380;10.034;2023-07-28T00:09:53;2.13;;;1.93;;
27576;SDS011;15011;53.380;10.034;2023-07-28T00:14:53;3.40;;;1.50;;
27576;SDS011;15011;53.380;10.034;2023-07-28T00:19:54;2.10;;;1.60;;
27576;SDS011;15011;53.380;10.034;2023-07-28T00:24:54;2.03;;;1.83;;
27576;SDS011;15011;53.380;10.034;2023-07-28T00:29:55;2.17;;;1.30;;
27576;SDS011;15011;53.380;10.034;2023-07-28T00:34:55;1.70;;;1.60;;
27576;SDS011;15011;53.380;10.034;2023-07-28T00:39:55;1.73;;;1.57;;
27576;SDS011;15011;53.380;10.034;2023-07-28T00:44:56;2.77;;;1.70;;
27576;SDS011;15011;53.380;10.034;2023-07-28T00:49:56;1.30;;;1.20;;
27576;SDS011;15011;53.380;10.034;2023-07-28T00:54:57;1.53;;;1.43;;
27576;SDS011;15011;53.380;10.034;2023-07-28T00:59:57;1.65;;;1.52;;
27576;SDS011;15011;53.380;10.034;2023-07-28T01:04:58;1.88;;;1.50;;
27576;SDS011;15011;53.380;10.034;2023-07-28T01:15:03;1.60;;;1.50;;
27576;SDS011;15011;53.380;10.034;2023-07-28T01:20:03;3.88;;;2.28;;
27576;SDS011;15011;53.380;10.034;2023-07-28T01:30:30;15.13;;;3.72;;
27576;SDS011;15011;53.380;10.034;2023-07-28T01:35:30;11.10;;;3.33;;
27576;SDS011;15011;53.380;10.034;2023-07-28T01:40:30;4.63;;;3.40;;
27576;SDS011;15011;53.380;10.034;2023-07-28T01:45:31;4.78;;;3.50;;
27576;SDS011;15011;53.380;10.034;2023-07-28T01:50:31;12.13;;;4.40;;
27576;SDS011;15011;53.380;10.034;2023-07-28T01:55:32;4.43;;;4.03;;
27576;SDS011;15011;53.380;10.034;2023-07-28T02:00:32;4.83;;;2.97;;
27576;SDS011;15011;53.380;10.034;2023-07-28T02:05:33;5.05;;;3.33;;
27576;SDS011;15011;53.380;10.034;2023-07-28T02:10:33;4.40;;;3.50;;
27576;SDS011;15011;53.380;10.034;2023-07-28T02:15:34;4.23;;;3.60;;
27576;SDS011;15011;53.380;10.034;2023-07-28T02:20:34;3.90;;;3.17;;
27576;SDS011;15011;53.380;10.034;2023-07-28T02:25:35;3.67;;;3.10;;
27576;SDS011;15011;53.380;10.034;2023-07-28T02:30:36;4.22;;;3.20;;
27576;SDS011;15011;53.380;10.034;2023-07-28T02:35:36;5.00;;;3.60;;
27576;SDS011;15011;53.380;10.034;2023-07-28T02:40:37;3.40;;;2.80;;
27576;SDS011;15011;53.380;10.034;2023-07-28T02:45:37;2.97;;;2.70;;
27576;SDS011;15011;53.380;10.034;2023-07-28T02:50:38;6.73;;;3.93;;
27576;SDS011;15011;53.380;10.034;2023-07-28T02:55:41;5.55;;;3.63;;
27576;SDS011;15011;53.380;10.034;2023-07-28T03:00:43;4.40;;;3.08;;
27576;SDS011;15011;53.380;10.034;2023-07-28T03:05:44;4.00;;;3.10;;
27576;SDS011;15011;53.380;10.034;2023-07-28T03:10:44;4.40;;;3.20;;
27576;SDS011;15011;53.380;10.034;2023-07-28T03:15:45;4.17;;;2.60;;
27576;SDS011;15011;53.380;10.034;2023-07-28T03:20:45;2.28;;;2.05;;
27576;SDS011;15011;53.380;10.034;2023-07-28T03:25:46;2.08;;;1.88;;
27576;SDS011;15011;53.380;10.034;2023-07-28T03:30:47;2.03;;;1.80;;
27576;SDS011;15011;53.380;10.034;2023-07-28T03:35:47;3.67;;;2.10;;
27576;SDS011;15011;53.380;10.034;2023-07-28T03:40:47;3.07;;;1.70;;
27576;SDS011;15011;53.380;10.034;2023-07-28T03:45:48;1.90;;;1.53;;
27576;SDS011;15011;53.380;10.034;2023-07-28T03:50:48;2.75;;;1.52;;
27576;SDS011;15011;53.380;10.034;2023-07-28T03:55:49;4.33;;;2.13;;
27576;SDS011;15011;53.380;10.034;2023-07-28T04:00:49;5.27;;;2.77;;
27576;SDS011;15011;53.380;10.034;2023-07-28T04:05:50;6.43;;;3.42;;
27576;SDS011;15011;53.380;10.034;2023-07-28T04:10:50;2.97;;;2.50;;
27576;SDS011;15011;53.380;10.034;2023-07-28T04:15:50;3.00;;;2.77;;
27576;SDS011;15011;53.380;10.034;2023-07-28T04:20:51;3.67;;;3.13;;
27576;SDS011;15011;53.380;10.034;2023-07-28T04:25:52;3.43;;;3.07;;
27576;SDS011;15011;53.380;10.034;2023-07-28T04:30:52;2.83;;;2.63;;
27576;SDS011;15011;53.380;10.034;2023-07-28T04:35:52;3.10;;;2.43;;
27576;SDS011;15011;53.380;10.034;2023-07-28T04:40:53;2.80;;;2.60;;
27576;SDS011;15011;53.380;10.034;2023-07-28T04:45:53;2.53;;;2.33;;
27576;SDS011;15011;53.380;10.034;2023-07-28T04:50:54;3.80;;;2.80;;
27576;SDS011;15011;53.380;10.034;2023-07-28T04:55:54;3.28;;;2.45;;
27576;SDS011;15011;53.380;10.034;2023-07-28T05:00:55;5.50;;;3.10;;
27576;SDS011;15011;53.380;10.034;2023-07-28T05:05:55;3.43;;;3.23;;
27576;SDS011;15011;53.380;10.034;2023-07-28T05:10:56;2.75;;;2.30;;
27576;SDS011;15011;53.380;10.034;2023-07-28T05:15:57;2.63;;;2.30;;
27576;SDS011;15011;53.380;10.034;2023-07-28T05:20:57;3.87;;;2.37;;
27576;SDS011;15011;53.380;10.034;2023-07-28T05:25:57;4.33;;;2.60;;
27576;SDS011;15011;53.380;10.034;2023-07-28T05:31:07;6.17;;;2.60;;
27576;SDS011;15011;53.380;10.034;2023-07-28T05:36:07;5.03;;;2.40;;
27576;SDS011;15011;53.380;10.034;2023-07-28T05:41:08;3.07;;;2.00;;
27576;SDS011;15011;53.380;10.034;2023-07-28T05:46:08;2.30;;;2.10;;
27576;SDS011;15011;53.380;10.034;2023-07-28T05:51:09;2.87;;;1.50;;
27576;SDS011;15011;53.380;10.034;2023-07-28T05:56:09;4.03;;;2.65;;
27576;SDS011;15011;53.380;10.034;2023-07-28T06:01:10;2.37;;;1.97;;
27576;SDS011;15011;53.380;10.034;2023-07-28T06:06:10;2.50;;;1.70;;
27576;SDS011;15011;53.380;10.034;2023-07-28T06:11:11;2.42;;;1.83;;
27576;SDS011;15011;53.380;10.034;2023-07-28T06:16:11;2.10;;;2.00;;
27576;SDS011;15011;53.380;10.034;2023-07-28T06:21:12;2.70;;;2.50;;
27576;SDS011;15011;53.380;10.034;2023-07-28T06:26:13;3.30;;;2.77;;
27576;SDS011;15011;53.380;10.034;2023-07-28T06:31:14;1.80;;;1.70;;
27576;SDS011;15011;53.380;10.034;2023-07-28T06:36:14;3.08;;;1.90;;
27576;SDS011;15011;53.380;10.034;2023-07-28T06:41:15;1.87;;;1.50;;
27576;SDS011;15011;53.380;10.034;2023-07-28T06:46:15;2.13;;;1.40;;
27576;SDS011;15011;53.380;10.034;2023-07-28T06:51:16;1.80;;;1.67;;
27576;SDS011;15011;53.380;10.034;2023-07-28T06:56:16;2.80;;;2.40;;
27576;SDS011;15011;53.380;10.034;2023-07-28T07:01:17;2.47;;;2.27;;
27576;SDS011;15011;53.380;10.034;2023-07-28T07:06:18;3.55;;;2.75;;
27576;SDS011;15011;53.380;10.034;2023-07-28T07:11:18;4.10;;;3.70;;
27576;SDS011;15011;53.380;10.034;2023-07-28T07:16:18;2.95;;;2.28;;
27576;SDS011;15011;53.380;10.034;2023-07-28T07:21:19;3.10;;;2.77;;
27576;SDS011;15011;53.380;10.034;2023-07-28T07:26:19;3.37;;;3.00;;
27576;SDS011;15011;53.380;10.034;2023-07-28T07:31:20;3.40;;;2.88;;
27576;SDS011;15011;53.380;10.034;2023-07-28T07:36:20;3.27;;;2.93;;
27576;SDS011;15011;53.380;10.034;2023-07-28T07:41:21;5.30;;;3.20;;
27576;SDS011;15011;53.380;10.034;2023-07-28T07:46:23;3.95;;;3.55;;
27576;SDS011;15011;53.380;10.034;2023-07-28T07:51:23;4.35;;;3.28;;
27576;SDS011;15011;53.380;10.034;2023-07-28T07:56:24;4.13;;;3.28;;
27576;SDS011;15011;53.380;10.034;2023-07-28T08:01:24;3.87;;;3.47;;
27576;SDS011;15011;53.380;10.034;2023-07-28T08:06:25;3.87;;;3.50;;
27576;SDS011;15011;53.380;10.034;2023-07-28T08:11:25;4.75;;;3.97;;
27576;SDS011;15011;53.380;10.034;2023-07-28T08:16:27;3.88;;;3.45;;
27576;SDS011;15011;53.380;10.034;2023-07-28T08:21:27;5.13;;;3.92;;
27576;SDS011;15011;53.380;10.034;2023-07-28T08:26:28;5.47;;;4.40;;
27576;SDS011;15011;53.380;10.034;2023-07-28T08:31:28;4.03;;;3.67;;
27576;SDS011;15011;53.380;10.034;2023-07-28T08:36:28;4.83;;;3.73;;
27576;SDS011;15011;53.380;10.034;2023-07-28T08:41:29;4.57;;;3.73;;
27576;SDS011;15011;53.380;10.034;2023-07-28T08:46:29;4.18;;;3.78;;
27576;SDS011;15011;53.380;10.034;2023-07-28T08:51:31;3.97;;;3.17;;
27576;SDS011;15011;53.380;10.034;2023-07-28T08:56:31;4.97;;;4.10;;
27576;SDS011;15011;53.380;10.034;2023-07-28T09:01:32;4.65;;;3.95;;
27576;SDS011;15011;53.380;10.034;2023-07-28T09:06:33;4.77;;;4.13;;
27576;SDS011;15011;53.380;10.034;2023-07-28T09:11:33;5.37;;;3.80;;
27576;SDS011;15011;53.380;10.034;2023-07-28T09:16:33;6.28;;;4.30;;
27576;SDS011;15011;53.380;10.034;2023-07-28T09:21:34;4.85;;;4.32;;
27576;SDS011;15011;53.380;10.034;2023-07-28T09:26:45;4.13;;;3.80;;
27576;SDS011;15011;53.380;10.034;2023-07-28T09:31:47;5.00;;;3.90;;
27576;SDS011;15011;53.380;10.034;2023-07-28T09:36:49;4.13;;;3.50;;
27576;SDS011;15011;53.380;10.034;2023-07-28T09:41:49;3.33;;;3.03;;
27576;SDS011;15011;53.380;10.034;2023-07-28T09:46:51;3.50;;;3.25;;
27576;SDS011;15011;53.380;10.034;2023-07-28T09:51:59;3.60;;;3.30;;
27576;SDS011;15011;53.380;10.034;2023-07-28T09:57:02;4.93;;;4.13;;
27576;SDS011;15011;53.380;10.034;2023-07-28T10:02:04;4.68;;;4.35;;
27576;SDS011;15011;53.380;10.034;2023-07-28T10:07:08;4.93;;;4.53;;
27576;SDS011;15011;53.380;10.034;2023-07-28T10:12:17;5.63;;;5.13;;
27576;SDS011;15011;53.380;10.034;2023-07-28T10:17:18;5.30;;;4.80;;
27576;SDS011;15011;53.380;10.034;2023-07-28T10:22:18;5.70;;;4.88;;
27576;SDS011;15011;53.380;10.034;2023-07-28T10:27:31;5.60;;;4.97;;
27576;SDS011;15011;53.380;10.034;2023-07-28T10:32:37;7.38;;;6.45;;
27576;SDS011;15011;53.380;10.034;2023-07-28T10:37:44;5.40;;;4.70;;
27576;SDS011;15011;53.380;10.034;2023-07-28T10:42:48;5.75;;;5.25;;
27576;SDS011;15011;53.380;10.034;2023-07-28T10:47:49;4.75;;;4.35;;
27576;SDS011;15011;53.380;10.034;2023-07-28T10:52:52;4.05;;;3.75;;
27576;SDS011;15011;53.380;10.034;2023-07-28T10:57:53;4.27;;;3.87;;
27576;SDS011;15011;53.380;10.034;2023-07-28T11:02:54;5.18;;;4.60;;
27576;SDS011;15011;53.380;10.034;2023-07-28T11:07:55;3.55;;;3.25;;
27576;SDS011;15011;53.380;10.034;2023-07-28T11:13:01;3.58;;;3.25;;
27576;SDS011;15011;53.380;10.034;2023-07-28T11:18:03;3.55;;;3.25;;
27576;SDS011;15011;53.380;10.034;2023-07-28T11:23:04;3.75;;;3.42;;
27576;SDS011;15011;53.380;10.034;2023-07-28T11:28:05;3.13;;;2.83;;
27576;SDS011;15011;53.380;10.034;2023-07-28T11:33:08;3.47;;;3.17;;
27576;SDS011;15011;53.380;10.034;2023-07-28T11:38:11;3.35;;;3.03;;
27576;SDS011;15011;53.380;10.034;2023-07-28T11:43:11;3.72;;;3.40;;
27576;SDS011;15011;53.380;10.034;2023-07-28T11:48:12;3.10;;;2.90;;
27576;SDS011;15011;53.380;10.034;2023-07-28T11:53:15;3.20;;;2.90;;
27576;SDS011;15011;53.380;10.034;2023-07-28T11:58:15;3.17;;;2.80;;
27576;SDS011;15011;53.380;10.034;2023-07-28T12:03:16;2.92;;;2.72;;
27576;SDS011;15011;53.380;10.034;2023-07-28T12:08:32;2.60;;;2.40;;
27576;SDS011;15011;53.380;10.034;2023-07-28T12:13:38;2.67;;;2.15;;
27576;SDS011;15011;53.380;10.034;2023-07-28T12:18:47;2.40;;;2.20;;
27576;SDS011;15011;53.380;10.034;2023-07-28T12:23:47;2.75;;;2.55;;
27576;SDS011;15011;53.380;10.034;2023-07-28T12:28:48;2.20;;;2.10;;
27576;SDS011;15011;53.380;10.034;2023-07-28T12:33:48;2.70;;;2.50;;
27576;SDS011;15011;53.380;10.034;2023-07-28T12:38:49;3.20;;;3.00;;
27576;SDS011;15011;53.380;10.034;2023-07-28T12:43:49;2.70;;;2.50;;
27576;SDS011;15011;53.380;10.034;2023-07-28T12:48:50;3.90;;;3.60;;
27576;SDS011;15011;53.380;10.034;2023-07-28T12:53:50;2.60;;;2.40;;
27576;SDS011;15011;53.380;10.034;2023-07-28T12:58:51;2.42;;;2.22;;
27576;SDS011;15011;53.380;10.034;2023-07-28T13:03:51;2.30;;;2.20;;
27576;SDS011;15011;53.380;10.034;2023-07-28T13:08:51;1.87;;;1.77;;
27576;SDS011;15011;53.380;10.034;2023-07-28T13:13:52;1.77;;;1.63;;
27576;SDS011;15011;53.380;10.034;2023-07-28T13:18:52;2.17;;;2.07;;
27576;SDS011;15011;53.380;10.034;2023-07-28T13:23:53;1.80;;;1.70;;
27576;SDS011;15011;53.380;10.034;2023-07-28T13:28:53;1.80;;;1.40;;
27576;SDS011;15011;53.380;10.034;2023-07-28T13:33:54;2.45;;;1.95;;
27576;SDS011;15011;53.380;10.034;2023-07-28T13:38:54;2.20;;;2.00;;
27576;SDS011;15011;53.380;10.034;2023-07-28T13:43:55;1.70;;;1.60;;
27576;SDS011;15011;53.380;10.034;2023-07-28T13:48:55;2.17;;;1.57;;
27576;SDS011;15011;53.380;10.034;2023-07-28T13:53:56;2.00;;;1.60;;
27576;SDS011;15011;53.380;10.034;2023-07-28T13:58:56;3.70;;;2.87;;
27576;SDS011;15011;53.380;10.034;2023-07-28T14:03:57;4.27;;;3.13;;
27576;SDS011;15011;53.380;10.034;2023-07-28T14:08:57;2.87;;;2.63;;
27576;SDS011;15011;53.380;10.034;2023-07-28T14:13:58;5.43;;;3.50;;
27576;SDS011;15011;53.380;10.034;2023-07-28T14:18:58;4.40;;;3.47;;
27576;SDS011;15011;53.380;10.034;2023-07-28T14:23:58;3.83;;;3.00;;
27576;SDS011;15011;53.380;10.034;2023-07-28T14:28:59;2.75;;;2.55;;
27576;SDS011;15011;53.380;10.034;2023-07-28T14:33:59;2.57;;;2.37;;
27576;SDS011;15011;53.380;10.034;2023-07-28T14:39:00;1.97;;;1.87;;
27576;SDS011;15011;53.380;10.034;2023-07-28T14:44:00;2.20;;;2.10;;
27576;SDS011;15011;53.380;10.034;2023-07-28T14:49:01;1.80;;;1.70;;
27576;SDS011;15011;53.380;10.034;2023-07-28T14:54:02;2.28;;;2.08;;
27576;SDS011;15011;53.380;10.034;2023-07-28T14:59:02;2.47;;;1.92;;
27576;SDS011;15011;53.380;10.034;2023-07-28T15:04:03;1.90;;;1.80;;
27576;SDS011;15011;53.380;10.034;2023-07-28T15:09:04;2.03;;;1.90;;
27576;SDS011;15011;53.380;10.034;2023-07-28T15:14:05;2.20;;;2.10;;
27576;SDS011;15011;53.380;10.034;2023-07-28T15:19:06;1.92;;;1.83;;
27576;SDS011;15011;53.380;10.034;2023-07-28T15:24:07;1.75;;;1.60;;
27576;SDS011;15011;53.380;10.034;2023-07-28T15:29:08;2.20;;;1.90;;
27576;SDS011;15011;53.380;10.034;2023-07-28T15:34:08;2.20;;;2.00;;
27576;SDS011;15011;53.380;10.034;2023-07-28T15:39:09;2.20;;;2.10;;
27576;SDS011;15011;53.380;10.034;2023-07-28T15:44:09;2.97;;;2.40;;
27576;SDS011;15011;53.380;10.034;2023-07-28T15:49:10;2.00;;;1.90;;
27576;SDS011;15011;53.380;10.034;2023-07-28T15:54:11;1.80;;;1.70;;
27576;SDS011;15011;53.380;10.034;2023-07-28T15:59:12;1.70;;;1.60;;
27576;SDS011;15011;53.380;10.034;2023-07-28T16:04:12;1.80;;;1.70;;
27576;SDS011;15011;53.380;10.034;2023-07-28T16:09:13;2.60;;;2.00;;
27576;SDS011;15011;53.380;10.034;2023-07-28T16:14:14;2.70;;;1.95;;
27576;SDS011;15011;53.380;10.034;2023-07-28T16:19:14;1.27;;;1.17;;
27576;SDS011;15011;53.380;10.034;2023-07-28T16:24:15;2.40;;;1.80;;
27576;SDS011;15011;53.380;10.034;2023-07-28T16:29:15;1.70;;;1.60;;
27576;SDS011;15011;53.380;10.034;2023-07-28T16:34:16;2.93;;;1.87;;
27576;SDS011;15011;53.380;10.034;2023-07-28T16:39:16;2.00;;;1.90;;
27576;SDS011;15011;53.380;10.034;2023-07-28T16:44:17;2.25;;;1.50;;
27576;SDS011;15011;53.380;10.034;2023-07-28T16:49:17;1.60;;;1.50;;
27576;SDS011;15011;53.380;10.034;2023-07-28T16:54:18;1.70;;;1.60;;
27576;SDS011;15011;53.380;10.034;2023-07-28T16:59:18;1.93;;;1.30;;
27576;SDS011;15011;53.380;10.034;2023-07-28T17:04:19;2.13;;;1.67;;
27576;SDS011;15011;53.380;10.034;2023-07-28T17:09:19;2.03;;;1.50;;
27576;SDS011;15011;53.380;10.034;2023-07-28T17:14:19;2.10;;;1.57;;
27576;SDS011;15011;53.380;10.034;2023-07-28T17:19:20;1.50;;;1.40;;
27576;SDS011;15011;53.380;10.034;2023-07-28T17:24:20;1.50;;;1.40;;
27576;SDS011;15011;53.380;10.034;2023-07-28T17:29:21;1.85;;;1.50;;
27576;SDS011;15011;53.380;10.034;2023-07-28T17:34:22;1.70;;;1.60;;
27576;SDS011;15011;53.380;10.034;2023-07-28T17:39:22;1.50;;;1.40;;
27576;SDS011;15011;53.380;10.034;2023-07-28T17:44:23;1.50;;;1.35;;
27576;SDS011;15011;53.380;10.034;2023-07-28T17:49:24;1.30;;;1.20;;
27576;SDS011;15011;53.380;10.034;2023-07-28T17:54:25;1.80;;;1.30;;
27576;SDS011;15011;53.380;10.034;2023-07-28T17:59:25;1.60;;;1.50;;
27576;SDS011;15011;53.380;10.034;2023-07-28T18:04:25;2.60;;;1.60;;
27576;SDS011;15011;53.380;10.034;2023-07-28T18:09:26;1.40;;;1.30;;
27576;SDS011;15011;53.380;10.034;2023-07-28T18:14:26;1.80;;;1.70;;
27576;SDS011;15011;53.380;10.034;2023-07-28T18:19:27;2.67;;;2.47;;
27576;SDS011;15011;53.380;10.034;2023-07-28T18:24:27;2.15;;;1.95;;
27576;SDS011;15011;53.380;10.034;2023-07-28T18:29:28;2.30;;;2.10;;
27576;SDS011;15011;53.380;10.034;2023-07-28T18:34:28;2.43;;;2.23;;
27576;SDS011;15011;53.380;10.034;2023-07-28T18:39:28;2.47;;;2.27;;
27576;SDS011;15011;53.380;10.034;2023-07-28T18:44:30;3.05;;;2.20;;
27576;SDS011;15011;53.380;10.034;2023-07-28T18:49:31;1.90;;;1.80;;
27576;SDS011;15011;53.380;10.034;2023-07-28T18:54:31;2.33;;;2.10;;
27576;SDS011;15011;53.380;10.034;2023-07-28T18:59:32;2.83;;;2.10;;
27576;SDS011;15011;53.380;10.034;2023-07-28T19:04:32;2.17;;;1.80;;
27576;SDS011;15011;53.380;10.034;2023-07-28T19:09:33;2.80;;;2.60;;
27576;SDS011;15011;53.380;10.034;2023-07-28T19:14:38;2.47;;;2.28;;
27576;SDS011;15011;53.380;10.034;2023-07-28T19:19:39;3.63;;;2.30;;
27576;SDS011;15011;53.380;10.034;2023-07-28T19:24:40;2.38;;;1.90;;
27576;SDS011;15011;53.380;10.034;2023-07-28T19:29:41;3.03;;;2.30;;
27576;SDS011;15011;53.380;10.034;2023-07-28T19:34:44;2.45;;;2.25;;
27576;SDS011;15011;53.380;10.034;2023-07-28T19:39:44;2.55;;;2.35;;
27576;SDS011;15011;53.380;10.034;2023-07-28T19:44:45;3.53;;;2.30;;
27576;SDS011;15011;53.380;10.034;2023-07-28T19:49:45;3.10;;;2.47;;
27576;SDS011;15011;53.380;10.034;2023-07-28T19:54:45;3.97;;;2.77;;
27576;SDS011;15011;53.380;10.034;2023-07-28T19:59:46;2.83;;;2.63;;
27576;SDS011;15011;53.380;10.034;2023-07-28T20:04:47;4.75;;;3.70;;
27576;SDS011;15011;53.380;10.034;2023-07-28T20:09:48;3.53;;;2.70;;
27576;SDS011;15011;53.380;10.034;2023-07-28T20:14:48;4.93;;;3.75;;
27576;SDS011;15011;53.380;10.034;2023-07-28T20:19:49;2.50;;;2.30;;
27576;SDS011;15011;53.380;10.034;2023-07-28T20:24:50;2.50;;;2.30;;
27576;SDS011;15011;53.380;10.034;2023-07-28T20:29:51;3.90;;;2.40;;
27576;SDS011;15011;53.380;10.034;2023-07-28T20:34:51;2.77;;;2.57;;
27576;SDS011;15011;53.380;10.034;2023-07-28T20:39:52;2.88;;;2.63;;
27576;SDS011;15011;53.380;10.034;2023-07-28T20:44:52;2.73;;;2.53;;
27576;SDS011;15011;53.380;10.034;2023-07-28T20:49:52;3.25;;;2.45;;
27576;SDS011;15011;53.380;10.034;2023-07-28T20:54:53;3.05;;;2.47;;
27576;SDS011;15011;53.380;10.034;2023-07-28T20:59:54;2.75;;;2.55;;
27576;SDS011;15011;53.380;10.034;2023-07-28T21:04:54;3.80;;;2.63;;
27576;SDS011;15011;53.380;10.034;2023-07-28T21:09:56;2.75;;;2.55;;
27576;SDS011;15011;53.380;10.034;2023-07-28T21:14:56;2.80;;;2.60;;
27576;SDS011;15011;53.380;10.034;2023-07-28T21:19:57;6.47;;;5.15;;
27576;SDS011;15011;53.380;10.034;2023-07-28T21:24:57;4.33;;;3.83;;
27576;SDS011;15011;53.380;10.034;2023-07-28T21:29:58;3.50;;;3.00;;
27576;SDS011;15011;53.380;10.034;2023-07-28T21:34:58;3.30;;;3.00;;
27576;SDS011;15011;53.380;10.034;2023-07-28T21:39:59;3.63;;;2.97;;
27576;SDS011;15011;53.380;10.034;2023-07-28T21:44:59;3.28;;;2.95;;
27576;SDS011;15011;53.380;10.034;2023-07-28T21:50:00;3.70;;;2.90;;
27576;SDS011;15011;53.380;10.034;2023-07-28T21:55:00;3.03;;;2.73;;
27576;SDS011;15011;53.380;10.034;2023-07-28T22:00:00;2.60;;;2.40;;
27576;SDS011;15011;53.380;10.034;2023-07-28T22:05:01;3.20;;;2.90;;
27576;SDS011;15011;53.380;10.034;2023-07-28T22:10:02;3.78;;;3.15;;
27576;SDS011;15011;53.380;10.034;2023-07-28T22:15:05;3.78;;;3.35;;
27576;SDS011;15011;53.380;10.034;2023-07-28T22:20:06;4.32;;;4.00;;
27576;SDS011;15011;53.380;10.034;2023-07-28T22:25:07;4.57;;;3.47;;
27576;SDS011;15011;53.380;10.034;2023-07-28T22:30:08;5.80;;;3.97;;
27576;SDS011;15011;53.380;10.034;2023-07-28T22:35:09;3.83;;;3.45;;
27576;SDS011;15011;53.380;10.034;2023-07-28T22:40:09;5.07;;;4.03;;
27576;SDS011;15011;53.380;10.034;2023-07-28T22:45:10;3.95;;;3.65;;
27576;SDS011;15011;53.380;10.034;2023-07-28T22:50:10;4.80;;;4.40;;
27576;SDS011;15011;53.380;10.034;2023-07-28T22:55:11;5.70;;;4.47;;
27576;SDS011;15011;53.380;10.034;2023-07-28T23:00:13;5.80;;;4.88;;
27576;SDS011;15011;53.380;10.034;2023-07-28T23:05:14;5.32;;;4.60;;
27576;SDS011;15011;53.380;10.034;2023-07-28T23:10:15;5.10;;;4.40;;
27576;SDS011;15011;53.380;10.034;2023-07-28T23:15:16;6.57;;;5.10;;
27576;SDS011;15011;53.380;10.034;2023-07-28T23:20:17;5.73;;;4.60;;
27576;SDS011;15011;53.380;10.034;2023-07-28T23:25:17;5.03;;;4.53;;
27576;SDS011;15011;53.380;10.034;2023-07-28T23:30:17;4.83;;;4.20;;
27576;SDS011;15011;53.380;10.034;2023-07-28T23:35:18;6.50;;;4.30;;
27576;SDS011;15011;53.380;10.034;2023-07-28T23:40:18;7.00;;;4.70;;
27576;SDS011;15011;53.380;10.034;2023-07-28T23:45:19;5.90;;;4.87;;
27576;SDS011;15011;53.380;10.034;2023-07-28T23:50:19;4.97;;;4.47;;
27576;SDS011;15011;53.380;10.034;2023-07-28T23:55:20;5.90;;;4.83;;
